createdAt,value
2022-12-15T00:01:08.207Z,15.52
2022-12-15T00:03:58.903Z,15.20
2022-12-15T00:06:48.569Z,15.98
2022-12-15T00:09:36.710Z,12.10
2022-12-15T00:12:22.326Z,12.82
2022-12-15T00:15:13.832Z,11.82
2022-12-15T00:18:00.278Z,13.10
2022-12-15T00:20:45.593Z,14.05
2022-12-15T00:23:31.592Z,14.48
2022-12-15T00:26:20.020Z,13.23
2022-12-15T00:29:09.437Z,14.45
2022-12-15T00:31:57.125Z,13.95
2022-12-15T00:34:45.140Z,13.10
2022-12-15T00:37:31.380Z,11.90
2022-12-15T00:39:58.150Z,11.98
2022-12-15T00:42:31.543Z,12.18
2022-12-15T00:45:04.261Z,15.95
2022-12-15T00:47:38.982Z,14.77
2022-12-15T00:50:29.548Z,12.25
2022-12-15T00:53:17.959Z,12.43
2022-12-15T00:56:03.252Z,16.08
2022-12-15T00:58:48.603Z,16.15
2022-12-15T01:01:36.149Z,10.55
2022-12-15T01:04:22.780Z,10.40
2022-12-15T01:07:08.046Z,11.93
2022-12-15T01:09:53.467Z,11.63
2022-12-15T01:12:38.990Z,12.93
2022-12-15T01:15:26.687Z,12.07
2022-12-15T01:18:12.250Z,11.88
2022-12-15T01:20:38.853Z,12.50
2022-12-15T01:23:05.535Z,12.40
2022-12-15T01:25:37.295Z,11.60
2022-12-15T01:28:04.481Z,11.15
2022-12-15T01:30:31.186Z,12.85
2022-12-15T01:33:00.020Z,13.43
2022-12-15T01:35:46.389Z,12.27
2022-12-15T01:38:13.131Z,13.00
2022-12-15T01:40:45.490Z,12.65
2022-12-15T01:43:14.254Z,12.05
2022-12-15T01:45:46.352Z,11.43
2022-12-15T01:48:45.748Z,12.10
2022-12-15T01:51:17.872Z,11.50
2022-12-15T01:53:58.080Z,11.77
2022-12-15T01:56:32.533Z,12.60
2022-12-15T01:59:06.402Z,12.27
2022-12-15T02:01:33.206Z,11.05
2022-12-15T02:04:02.749Z,11.68
2022-12-15T02:09:26.434Z,12.85
2022-12-15T02:12:12.259Z,11.95
2022-12-15T02:14:46.377Z,12.40
2022-12-15T02:17:21.746Z,12.23
2022-12-15T02:20:27.350Z,12.10
2022-12-15T02:23:27.159Z,12.88
2022-12-15T02:26:02.780Z,11.73
2022-12-15T02:29:06.545Z,11.60
2022-12-15T02:32:12.826Z,12.68
2022-12-15T02:35:12.099Z,11.40
2022-12-15T02:37:44.329Z,11.98
2022-12-15T02:40:14.381Z,12.85
2022-12-15T02:42:51.333Z,11.80
2022-12-15T02:45:43.156Z,12.73
2022-12-15T02:48:28.741Z,11.48
2022-12-15T02:51:19.333Z,12.32
2022-12-15T02:54:14.948Z,11.32
2022-12-15T02:57:05.269Z,12.60
2022-12-15T02:59:54.671Z,11.65
2022-12-15T03:02:24.687Z,12.30
2022-12-15T03:05:25.080Z,12.65
2022-12-15T03:07:57.240Z,11.88
2022-12-15T03:10:25.571Z,13.13
2022-12-15T03:13:01.450Z,13.05
2022-12-15T03:15:34.898Z,12.25
2022-12-15T03:18:04.288Z,11.68
2022-12-15T03:20:33.842Z,11.90
2022-12-15T03:23:01.200Z,13.13
2022-12-15T03:25:29.684Z,11.43
2022-12-15T03:28:00.834Z,11.85
2022-12-15T03:30:27.571Z,12.75
2022-12-15T03:32:54.489Z,12.82
2022-12-15T03:35:22.107Z,12.82
2022-12-15T03:37:51.676Z,13.13
2022-12-15T03:40:18.691Z,12.45
2022-12-15T03:42:48.136Z,14.27
2022-12-15T03:45:20.091Z,12.88
2022-12-15T03:47:48.515Z,12.57
2022-12-15T03:50:18.635Z,12.00
2022-12-15T03:52:48.825Z,12.95
2022-12-15T03:55:20.252Z,12.68
2022-12-15T03:57:50.764Z,12.80
2022-12-15T04:00:19.163Z,12.95
2022-12-15T04:02:50.052Z,13.32
2022-12-15T04:06:05.338Z,12.98
2022-12-15T04:08:31.997Z,12.05
2022-12-15T04:10:58.842Z,14.63
2022-12-15T04:13:25.693Z,13.20
2022-12-15T04:15:52.516Z,13.25
2022-12-15T04:18:19.622Z,12.05
2022-12-15T04:20:46.411Z,13.48
2022-12-15T04:23:25.738Z,13.73
2022-12-15T04:26:13.274Z,14.18
2022-12-15T04:28:59.482Z,15.05
2022-12-15T04:31:48.739Z,13.88
2022-12-15T04:34:42.691Z,14.15
2022-12-15T04:37:31.485Z,14.98
2022-12-15T04:40:17.928Z,13.63
2022-12-15T04:43:05.571Z,13.23
2022-12-15T04:45:52.634Z,14.30
2022-12-15T04:48:42.579Z,14.55
2022-12-15T04:51:30.329Z,13.18
2022-12-15T04:54:19.691Z,14.15
2022-12-15T04:57:09.291Z,14.48
2022-12-15T04:59:54.968Z,14.00
2022-12-15T05:02:40.822Z,14.95
2022-12-15T05:05:30.771Z,14.32
2022-12-15T05:08:18.566Z,14.77
2022-12-15T05:11:03.890Z,15.43
2022-12-15T05:13:58.054Z,15.43
2022-12-15T05:16:43.704Z,15.27
2022-12-15T05:19:29.089Z,15.82
2022-12-15T05:22:15.112Z,14.68
2022-12-15T05:25:01.001Z,14.82
2022-12-15T05:27:46.417Z,13.80
2022-12-15T05:30:35.806Z,16.48
2022-12-15T05:33:05.180Z,15.25
2022-12-15T05:35:33.885Z,15.32
2022-12-15T05:38:00.631Z,16.30
2022-12-15T05:40:33.206Z,14.63
2022-12-15T05:43:09.172Z,16.83
2022-12-15T05:45:38.430Z,15.80
2022-12-15T05:48:05.540Z,17.85
2022-12-15T05:50:32.270Z,18.85
2022-12-15T05:53:04.212Z,16.40
2022-12-15T05:55:36.709Z,19.02
2022-12-15T05:58:05.978Z,16.95
2022-12-15T06:00:33.214Z,15.75
2022-12-15T06:03:02.175Z,17.95
2022-12-15T06:05:31.965Z,15.98
2022-12-15T06:07:59.448Z,15.30
2022-12-15T06:10:26.683Z,17.23
2022-12-15T06:12:58.421Z,16.17
2022-12-15T06:15:25.112Z,18.23
2022-12-15T06:17:52.810Z,18.60
2022-12-15T06:20:23.699Z,16.55
2022-12-15T06:22:52.969Z,16.27
2022-12-15T06:25:21.798Z,16.65
2022-12-15T06:28:01.569Z,16.35
2022-12-15T06:30:28.821Z,15.93
2022-12-15T06:32:55.475Z,15.93
2022-12-15T06:35:26.440Z,17.15
2022-12-15T06:37:56.835Z,15.75
2022-12-15T06:42:54.893Z,15.85
2022-12-15T06:45:23.816Z,18.67
2022-12-15T06:47:56.561Z,17.00
2022-12-15T06:50:30.704Z,16.85
2022-12-15T06:53:00.124Z,15.32
2022-12-15T06:55:33.244Z,15.68
2022-12-15T06:58:00.482Z,16.50
2022-12-15T07:00:29.438Z,15.60
2022-12-15T07:02:56.333Z,16.60
2022-12-15T07:05:23.102Z,15.20
2022-12-15T07:07:51.258Z,18.13
2022-12-15T07:10:18.295Z,15.90
2022-12-15T07:12:45.371Z,19.02
2022-12-15T07:15:14.322Z,17.50
2022-12-15T07:17:44.879Z,15.20
2022-12-15T07:20:28.810Z,17.75
2022-12-15T07:22:57.613Z,12.77
2022-12-15T07:25:24.577Z,16.52
2022-12-15T07:30:53.998Z,14.48
2022-12-15T07:33:20.795Z,14.70
2022-12-15T07:35:56.583Z,16.05
2022-12-15T07:38:26.474Z,17.95
2022-12-15T07:40:53.672Z,16.25
2022-12-15T07:43:22.093Z,16.35
2022-12-15T07:45:55.195Z,16.48
2022-12-15T07:48:23.060Z,16.13
2022-12-15T07:51:00.998Z,15.80
2022-12-15T07:53:38.122Z,16.02
2022-12-15T07:56:09.587Z,16.05
2022-12-15T07:58:38.342Z,16.58
2022-12-15T08:01:08.365Z,16.65
2022-12-15T08:03:38.434Z,15.63
2022-12-15T08:06:15.089Z,16.38
2022-12-15T08:08:49.913Z,16.35
2022-12-15T08:11:24.244Z,18.00
2022-12-15T08:14:02.633Z,16.63
2022-12-15T08:19:08.100Z,17.67
2022-12-15T08:21:38.190Z,16.40
2022-12-15T08:24:07.032Z,15.63
2022-12-15T08:26:34.618Z,16.48
2022-12-15T08:31:57.586Z,15.98
2022-12-15T08:34:24.390Z,17.02
2022-12-15T08:36:53.826Z,16.83
2022-12-15T08:39:20.567Z,17.83
2022-12-15T08:51:28.969Z,15.17
2022-12-15T08:56:24.631Z,16.25
2022-12-15T08:58:56.695Z,18.55
2022-12-15T09:01:26.223Z,18.38
2022-12-15T09:03:55.860Z,19.23
2022-12-15T09:06:36.345Z,18.00
2022-12-15T09:09:09.447Z,16.23
2022-12-15T09:11:37.779Z,17.13
2022-12-15T09:14:12.149Z,15.82
2022-12-15T09:16:40.089Z,14.70
2022-12-15T09:19:10.662Z,17.83
2022-12-15T09:21:44.232Z,17.45
2022-12-15T09:24:18.354Z,16.08
2022-12-15T09:26:51.933Z,14.80
2022-12-15T09:29:20.299Z,15.02
2022-12-15T09:31:50.070Z,15.63
2022-12-15T09:34:16.908Z,16.75
2022-12-15T09:36:43.560Z,15.88
2022-12-15T09:39:12.459Z,15.48
2022-12-15T09:41:42.699Z,16.35
2022-12-15T09:44:21.127Z,16.48
2022-12-15T09:47:09.973Z,17.38
2022-12-15T09:50:02.406Z,16.80
2022-12-15T09:52:50.821Z,17.88
2022-12-15T09:55:30.744Z,33.05
2022-12-15T09:58:26.499Z,28.80
2022-12-15T10:01:24.880Z,19.83
2022-12-15T10:04:19.468Z,19.27
2022-12-15T10:07:04.680Z,16.05
2022-12-15T10:09:36.219Z,17.85
2022-12-15T10:12:06.617Z,16.17
2022-12-15T10:15:02.733Z,15.55
2022-12-15T10:18:06.156Z,16.55
2022-12-15T10:23:12.183Z,17.25
2022-12-15T10:25:41.934Z,18.83
2022-12-15T10:28:44.093Z,18.45
2022-12-15T10:31:26.333Z,17.63
2022-12-15T10:34:02.410Z,16.13
2022-12-15T10:36:32.221Z,15.82
2022-12-15T10:38:58.940Z,16.15
2022-12-15T10:41:28.994Z,16.25
2022-12-15T10:43:56.802Z,17.45
2022-12-15T10:46:29.006Z,15.80
2022-12-15T10:49:30.493Z,16.35
2022-12-15T10:51:59.749Z,17.92
2022-12-15T10:54:33.875Z,17.08
2022-12-15T10:57:27.115Z,14.70
2022-12-15T11:02:25.638Z,16.30
2022-12-15T11:04:59.038Z,16.75
2022-12-15T11:07:53.714Z,15.90
2022-12-15T11:10:48.768Z,17.35
2022-12-15T11:13:35.218Z,16.55
2022-12-15T11:16:18.228Z,15.88
2022-12-15T11:21:36.377Z,14.73
2022-12-15T11:24:31.792Z,15.27
2022-12-15T11:27:29.735Z,16.50
2022-12-15T11:30:01.002Z,15.70
2022-12-15T11:32:40.506Z,15.52
2022-12-15T11:35:15.783Z,15.10
2022-12-15T11:38:01.655Z,15.48
2022-12-15T11:40:39.238Z,15.82
2022-12-15T11:43:20.235Z,15.27
2022-12-15T11:45:58.931Z,16.60
2022-12-15T11:48:46.874Z,17.48
2022-12-15T11:51:30.177Z,14.90
2022-12-15T11:54:16.025Z,16.25
2022-12-15T11:56:50.739Z,15.35
2022-12-15T11:59:56.725Z,15.75
2022-12-15T12:02:47.587Z,15.20
2022-12-15T12:05:39.212Z,16.15
2022-12-15T12:08:40.613Z,15.45
2022-12-15T12:11:24.820Z,16.42
2022-12-15T12:14:12.733Z,17.10
2022-12-15T12:17:07.733Z,16.75
2022-12-15T12:19:40.627Z,17.75
2022-12-15T12:22:18.247Z,15.73
2022-12-15T12:24:57.100Z,16.70
2022-12-15T12:27:36.987Z,16.20
2022-12-15T12:30:14.209Z,16.08
2022-12-15T12:33:03.163Z,15.18
2022-12-15T12:35:40.584Z,14.90
2022-12-15T12:38:11.028Z,15.25
2022-12-15T12:40:40.824Z,16.08
2022-12-15T12:43:14.236Z,16.05
2022-12-15T12:45:59.877Z,14.77
2022-12-15T12:48:49.532Z,14.38
2022-12-15T12:51:27.888Z,14.88
2022-12-15T12:54:00.249Z,14.60
2022-12-15T12:56:51.312Z,14.98
2022-12-15T12:59:41.208Z,15.63
2022-12-15T13:02:20.660Z,14.57
2022-12-15T13:04:51.147Z,15.27
2022-12-15T13:07:36.957Z,15.40
2022-12-15T13:10:11.048Z,16.92
2022-12-15T13:12:52.261Z,11.77
2022-12-15T13:15:42.303Z,16.58
2022-12-15T13:18:14.680Z,17.20
2022-12-15T13:20:42.862Z,16.38
2022-12-15T13:23:21.876Z,15.23
2022-12-15T13:25:57.451Z,16.02
2022-12-15T13:28:35.667Z,15.75
2022-12-15T13:31:20.132Z,15.10
2022-12-15T13:33:50.037Z,15.70
2022-12-15T13:36:40.795Z,15.48
2022-12-15T13:39:16.808Z,14.63
2022-12-15T13:42:07.857Z,15.05
2022-12-15T13:45:12.760Z,14.38
2022-12-15T13:47:39.843Z,15.48
2022-12-15T13:50:17.150Z,14.90
2022-12-15T13:53:18.395Z,14.25
2022-12-15T13:56:02.585Z,15.75
2022-12-15T13:58:37.255Z,15.73
2022-12-15T14:01:31.762Z,15.68
2022-12-15T14:04:17.229Z,14.60
2022-12-15T14:06:50.885Z,13.80
2022-12-15T14:09:32.357Z,14.70
2022-12-15T14:12:04.887Z,14.23
2022-12-15T14:14:42.069Z,15.98
2022-12-15T14:17:15.766Z,14.40
2022-12-15T14:19:44.652Z,14.05
2022-12-15T14:22:27.558Z,15.35
2022-12-15T14:25:12.894Z,15.77
2022-12-15T14:27:39.665Z,17.77
2022-12-15T14:30:18.595Z,17.50
2022-12-15T14:32:51.811Z,16.33
2022-12-15T14:35:23.660Z,16.70
2022-12-15T14:37:52.608Z,14.30
2022-12-15T14:40:26.551Z,17.15
2022-12-15T14:43:00.686Z,15.10
2022-12-15T14:45:30.688Z,19.15
2022-12-15T14:50:59.451Z,14.65
2022-12-15T14:53:32.712Z,16.33
2022-12-15T14:56:32.119Z,13.93
2022-12-15T14:59:24.569Z,15.10
2022-12-15T15:01:59.405Z,14.15
2022-12-15T15:03:15.715Z,21.05
2022-12-15T15:04:32.344Z,14.68
2022-12-15T15:07:04.254Z,13.70
2022-12-15T15:09:50.406Z,14.25
2022-12-15T15:12:20.355Z,14.90
2022-12-15T15:15:05.980Z,13.48
2022-12-15T15:17:42.505Z,14.90
2022-12-15T15:20:38.265Z,13.02
2022-12-15T15:23:09.698Z,14.45
2022-12-15T15:25:40.846Z,14.40
2022-12-15T15:28:22.333Z,12.90
2022-12-15T15:31:04.709Z,13.00
2022-12-15T15:33:31.867Z,13.55
2022-12-15T15:36:00.943Z,13.32
2022-12-15T15:38:34.185Z,13.88
2022-12-15T15:41:11.135Z,14.07
2022-12-15T15:46:37.713Z,13.82
2022-12-15T15:49:18.410Z,13.43
2022-12-15T15:51:45.281Z,14.50
2022-12-15T15:54:22.418Z,13.43
2022-12-15T15:56:54.814Z,13.75
2022-12-15T15:59:24.278Z,14.75
2022-12-15T16:01:55.174Z,14.63
2022-12-15T16:04:23.500Z,13.57
2022-12-15T16:06:51.457Z,13.82
2022-12-15T16:09:18.272Z,14.15
2022-12-15T16:11:51.923Z,14.95
2022-12-15T16:14:18.557Z,14.48
2022-12-15T16:16:47.644Z,14.40
2022-12-15T16:19:16.305Z,13.57
2022-12-15T16:21:51.291Z,13.63
2022-12-15T16:24:21.484Z,13.30
2022-12-15T16:26:49.794Z,13.82
2022-12-15T16:29:21.782Z,13.68
2022-12-15T16:31:53.761Z,14.73
2022-12-15T16:34:25.217Z,14.70
2022-12-15T16:36:54.881Z,14.15
2022-12-15T16:39:28.259Z,22.50
2022-12-15T16:41:56.002Z,15.18
2022-12-15T16:44:24.411Z,15.45
2022-12-15T16:46:53.410Z,17.05
2022-12-15T16:49:20.802Z,15.27
2022-12-15T16:52:07.803Z,15.02
2022-12-15T16:54:37.574Z,13.90
2022-12-15T16:57:05.994Z,14.32
2022-12-15T16:59:40.611Z,13.52
2022-12-15T17:02:30.859Z,14.80
2022-12-15T17:04:57.710Z,15.10
2022-12-15T17:07:26.940Z,13.18
2022-12-15T17:09:55.375Z,14.50
2022-12-15T17:12:22.539Z,14.68
2022-12-15T17:14:49.165Z,14.80
2022-12-15T17:17:18.066Z,14.90
2022-12-15T17:20:11.696Z,14.20
2022-12-15T17:22:33.109Z,13.13
2022-12-15T17:25:03.112Z,14.90
2022-12-15T17:27:32.305Z,13.88
2022-12-15T17:30:00.480Z,14.38
2022-12-15T17:32:33.355Z,15.90
2022-12-15T17:35:03.312Z,15.20
2022-12-15T17:37:35.087Z,17.98
2022-12-15T17:40:19.767Z,14.65
2022-12-15T17:42:49.608Z,15.25
2022-12-15T17:45:26.945Z,15.38
2022-12-15T17:47:54.674Z,14.82
2022-12-15T17:50:24.380Z,15.52
2022-12-15T17:52:51.075Z,14.00
2022-12-15T17:55:23.370Z,14.77
2022-12-15T17:57:56.209Z,15.60
2022-12-15T18:00:29.009Z,16.92
2022-12-15T18:02:57.690Z,14.82
2022-12-15T18:05:27.000Z,13.60
2022-12-15T18:07:57.129Z,13.95
2022-12-15T18:10:37.987Z,16.08
2022-12-15T18:13:40.557Z,14.32
2022-12-15T18:16:07.965Z,14.50
2022-12-15T18:18:34.957Z,14.68
2022-12-15T18:21:12.215Z,13.55
2022-12-15T18:23:41.511Z,15.35
2022-12-15T18:26:11.971Z,15.23
2022-12-15T18:28:38.746Z,16.77
2022-12-15T18:31:17.257Z,15.57
2022-12-15T18:33:44.346Z,14.15
2022-12-15T18:36:11.624Z,15.25
2022-12-15T18:38:38.573Z,14.85
2022-12-15T18:41:17.294Z,15.40
2022-12-15T18:43:57.818Z,14.75
2022-12-15T18:46:24.622Z,16.75
2022-12-15T18:48:55.224Z,17.05
2022-12-15T18:51:22.640Z,14.70
2022-12-15T18:53:53.929Z,17.58
2022-12-15T18:56:23.079Z,16.00
2022-12-15T18:58:52.221Z,17.13
2022-12-15T19:01:19.185Z,17.73
2022-12-15T19:03:46.017Z,16.90
2022-12-15T19:06:15.574Z,15.13
2022-12-15T19:08:42.294Z,16.98
2022-12-15T19:11:23.845Z,16.88
2022-12-15T19:13:50.606Z,16.55
2022-12-15T19:16:19.276Z,14.32
2022-12-15T19:19:17.070Z,14.18
2022-12-15T19:25:01.405Z,14.85
2022-12-15T19:27:30.049Z,15.93
2022-12-15T19:30:00.486Z,15.25
2022-12-15T19:32:27.186Z,14.90
2022-12-15T19:34:56.098Z,14.23
2022-12-15T19:37:29.723Z,15.02
2022-12-15T19:40:00.944Z,14.43
2022-12-15T19:42:38.376Z,12.30
2022-12-15T19:45:29.410Z,13.73
2022-12-15T19:47:56.679Z,15.10
2022-12-15T19:50:29.356Z,14.30
2022-12-15T19:55:33.712Z,13.63
2022-12-15T19:58:29.226Z,12.88
2022-12-15T20:01:07.220Z,15.63
2022-12-15T20:03:39.122Z,14.07
2022-12-15T20:06:16.253Z,14.60
2022-12-15T20:08:46.636Z,14.65
2022-12-15T20:11:29.371Z,13.88
2022-12-15T20:16:35.170Z,12.77
2022-12-15T20:19:01.943Z,13.73
2022-12-15T20:21:33.865Z,14.52
2022-12-15T20:24:06.929Z,14.20
2022-12-15T20:26:41.990Z,13.65
2022-12-15T20:29:24.986Z,13.13
2022-12-15T20:31:52.209Z,13.80
2022-12-15T20:37:28.905Z,13.90
2022-12-15T20:39:58.906Z,13.23
2022-12-15T20:42:28.078Z,12.55
2022-12-15T20:44:57.974Z,12.65
2022-12-15T20:47:26.772Z,14.15
2022-12-15T20:49:59.195Z,12.75
2022-12-15T20:52:26.503Z,13.20
2022-12-15T20:54:55.086Z,12.85
2022-12-15T20:57:27.867Z,13.70
2022-12-15T20:59:55.233Z,12.27
2022-12-15T21:02:28.171Z,12.70
2022-12-15T21:04:56.371Z,13.20
2022-12-15T21:07:26.225Z,11.88
2022-12-15T21:09:56.597Z,12.02
2022-12-15T21:12:48.899Z,12.60
2022-12-15T21:15:22.292Z,13.95
2022-12-15T21:18:19.728Z,12.55
2022-12-15T21:20:50.791Z,11.38
2022-12-15T21:23:28.165Z,12.05
2022-12-15T21:25:57.398Z,12.23
2022-12-15T21:28:24.580Z,10.77
2022-12-15T21:31:02.960Z,13.75
2022-12-15T21:33:33.626Z,14.13
2022-12-15T21:36:00.622Z,11.05
2022-12-15T21:38:30.851Z,13.40
2022-12-15T21:41:08.735Z,13.90
2022-12-15T21:43:38.376Z,12.05
2022-12-15T21:46:26.131Z,10.93
2022-12-15T21:49:13.887Z,11.57
2022-12-15T21:52:00.276Z,11.10
2022-12-15T21:54:33.754Z,11.35
2022-12-15T21:57:04.037Z,12.57
2022-12-15T21:59:32.245Z,10.70
2022-12-15T22:02:00.205Z,11.80
2022-12-15T22:04:33.269Z,13.30
2022-12-15T22:09:51.247Z,10.48
2022-12-15T22:12:22.028Z,10.75
2022-12-15T22:14:48.825Z,11.27
2022-12-15T22:17:22.633Z,10.52
2022-12-15T22:19:49.647Z,10.65
2022-12-15T22:22:19.234Z,11.02
2022-12-15T22:24:47.434Z,10.80
2022-12-15T22:27:26.450Z,11.55
2022-12-15T22:29:53.293Z,11.65
2022-12-15T22:32:20.320Z,11.40
2022-12-15T22:34:46.939Z,16.92
2022-12-15T22:37:13.754Z,11.02
2022-12-15T22:39:46.444Z,10.70
2022-12-15T22:44:45.989Z,11.30
2022-12-15T22:47:13.306Z,9.95
2022-12-15T22:49:45.121Z,11.20
2022-12-15T22:52:20.108Z,11.40
2022-12-15T22:54:47.241Z,11.57
2022-12-15T22:57:27.998Z,10.45
2022-12-15T23:00:11.260Z,11.88
2022-12-15T23:02:42.140Z,11.32
2022-12-15T23:05:13.761Z,12.30
2022-12-15T23:07:43.386Z,9.75
2022-12-15T23:10:31.121Z,13.77
2022-12-15T23:13:01.717Z,11.98
2022-12-15T23:15:49.592Z,11.35
2022-12-15T23:18:16.496Z,13.48
2022-12-15T23:20:44.070Z,10.65
2022-12-15T23:23:19.345Z,13.10
2022-12-15T23:25:46.387Z,11.40
2022-12-15T23:28:18.462Z,11.65
2022-12-15T23:30:55.451Z,12.00
2022-12-15T23:33:27.655Z,11.27
2022-12-15T23:35:56.375Z,11.15
2022-12-15T23:38:30.981Z,10.95
2022-12-15T23:40:58.423Z,10.93
2022-12-15T23:43:26.965Z,10.13
2022-12-15T23:46:06.516Z,10.43
2022-12-15T23:48:39.850Z,11.73
2022-12-15T23:51:18.042Z,11.85
2022-12-15T23:53:46.247Z,11.15
2022-12-15T23:56:24.452Z,11.85
2022-12-15T23:58:57.173Z,10.45
